Latest Weather Observations for Minlaton Airport

IDS60801

Issued at 6:01 pm CST Friday 29 May 2015 (issued every 30 minutes, with the page automatically refreshed every 10 minutes)

About weather observations | Map of weather stations | Latest weather observations for SA | Other Formats
Station Details ID: 022031 Name: MINLATON AERO Lat: -34.75 Lon: 137.53 Height: 32.0 m
Data from the previous 72 hours. | See also: Recent months at Minlaton Airport
Date/Time
CST
Temp
°C
App
Temp
°C
Dew
Point
Rel
Hum
%
Delta-T
°C
Wind Press
QNH
hPa
Press
MSL
hPa
Rain
since 9 am
mm
Dir
 
Spd
km/h
Gust
km/h
Spd
kts
Gust
kts
29/06:00pm 11.1 10.1 9.0 87 1.0 NNW 4 9 2 5 1023.9 1023.9 0.2
29/05:30pm 11.8 10.4 9.7 87 1.1 NNW 7 11 4 6 1023.8 1023.8 0.2
29/05:00pm 12.9 9.6 10.8 87 1.1 NW 19 24 10 13 1023.9 1023.9 0.2
29/04:30pm 13.7 10.7 9.4 75 2.2 NW 15 17 8 9 1023.7 1023.7 0.0
29/04:00pm 14.3 11.3 9.3 72 2.6 WNW 15 17 8 9 1023.7 1023.7 0.0
29/03:30pm 15.0 11.0 8.3 64 3.4 W 19 20 10 11 1023.5 1023.5 0.0
29/03:00pm 15.4 11.5 9.5 68 3.0 W 20 26 11 14 1023.4 1023.4 0.0
29/02:30pm 15.6 12.2 9.1 65 3.3 WNW 17 22 9 12 1023.3 1023.3 0.0
29/02:00pm 15.5 11.2 8.0 61 3.8 WNW 20 26 11 14 1023.5 1023.5 0.0
29/01:30pm 15.6 12.2 7.6 59 4.0 WNW 15 20 8 11 1023.6 1023.6 0.0
29/01:00pm 16.2 12.9 7.9 58 4.2 NW 15 22 8 12 1023.7 1023.7 0.0
29/12:30pm 14.3 10.2 8.5 68 2.9 WNW 20 30 11 16 1024.2 1024.2 0.0
29/12:00pm 14.2 9.5 9.4 73 2.4 W 24 30 13 16 1024.2 1024.2 0.0
29/11:30am 14.9 11.0 9.5 70 2.8 WSW 20 30 11 16 1024.4 1024.4 0.0
29/11:00am 15.3 13.2 8.3 63 3.5 WSW 9 20 5 11 1024.4 1024.4 0.0
29/10:30am 15.1 13.7 9.7 70 2.8 SSW 7 13 4 7 1024.5 1024.5 0.0
29/10:00am 14.1 12.8 9.1 72 2.5 SSE 6 9 3 5 1024.4 1024.4 0.0
29/09:30am 13.0 12.1 10.5 85 1.3 NNE 6 7 3 4 1024.4 1024.4 0.0
29/09:00am 12.5 11.1 9.7 83 1.4 NNW 7 13 4 7 1024.3 1024.3 1.2
29/08:30am 10.9 9.7 9.5 91 0.7 E 6 6 3 3 1023.9 1023.9 1.2
29/08:00am 9.5 8.0 8.3 92 0.6 E 6 7 3 4 1023.7 1023.7 1.2
29/07:30am 8.1 5.9 6.4 89 0.8 E 7 7 4 4 1023.6 1023.6 1.2
29/07:00am 9.3 7.4 7.4 88 0.9 S 7 9 4 5 1023.4 1023.4 1.2
29/06:30am 9.1 7.5 6.2 82 1.3 W 4 7 2 4 1023.2 1023.2 1.2
29/06:00am 11.2 8.7 8.1 81 1.5 W 11 13 6 7 1022.8 1022.8 1.2
29/05:30am 12.3 9.6 9.1 81 1.6 W 13 15 7 8 1022.6 1022.6 1.2
29/05:00am 11.9 10.0 8.9 82 1.5 W 9 15 5 8 1022.6 1022.6 1.2
29/04:30am 11.5 9.6 9.1 85 1.2 SW 9 13 5 7 1022.5 1022.5 1.2
29/04:00am 10.2 9.7 8.0 86 1.1 CALM 0 0 0 0 1022.3 1022.3 1.2
29/03:30am 11.4 11.2 9.1 86 1.1 CALM 0 0 0 0 1022.3 1022.3 1.2
29/03:00am 11.4 11.1 8.8 84 1.3 CALM 0 4 0 2 1022.2 1022.2 1.2
29/02:30am 11.9 10.0 8.9 82 1.5 SSW 9 11 5 6 1021.9 1021.9 1.2
29/02:00am 11.6 9.4 9.3 86 1.2 S 11 13 6 7 1021.9 1021.9 1.2
29/01:30am 12.0 10.2 9.4 84 1.3 SSW 9 9 5 5 1021.8 1021.8 1.2
29/01:00am 12.1 10.6 9.3 83 1.4 WSW 7 11 4 6 1021.8 1021.8 1.2
29/12:30am 11.7 9.9 9.3 85 1.2 WSW 9 11 5 6 1022.1 1022.1 1.2
29/12:00am 11.4 9.6 9.3 87 1.0 SW 9 11 5 6 1021.9 1021.9 1.2
 
Date/Time
CST
Temp
°C
App
Temp
°C
Dew
Point
Rel
Hum
%
Delta-T
°C
Wind Press
QNH
hPa
Press
MSL
hPa
Rain
since 9 am
mm
Dir
 
Spd
km/h
Gust
km/h
Spd
kts
Gust
kts
28/11:30pm 10.5 8.7 8.1 85 1.2 SSW 7 11 4 6 1021.8 1021.8 1.2
28/11:00pm 11.5 8.9 9.2 86 1.2 WSW 13 15 7 8 1021.8 1021.8 1.2
28/10:30pm 12.0 9.9 9.9 87 1.1 WSW 11 13 6 7 1021.8 1021.8 1.2
28/10:00pm 12.8 10.1 10.5 86 1.2 WSW 15 17 8 9 1021.8 1021.8 1.2
28/09:30pm 12.8 11.1 11.2 90 0.8 WSW 11 13 6 7 1021.7 1021.7 1.2
28/09:00pm 12.5 11.6 11.4 93 0.6 W 7 9 4 5 1021.3 1021.3 1.2
28/08:30pm 12.0 12.3 10.9 93 0.6 CALM 0 0 0 0 1020.9 1020.9 1.2
28/08:00pm 11.8 11.7 10.7 93 0.6 W 2 6 1 3 1020.7 1020.7 1.2
28/07:30pm 11.5 10.8 10.2 92 0.7 W 4 6 2 3 1020.5 1020.5 1.2
28/07:00pm 11.9 10.8 10.8 93 0.6 SW 7 9 4 5 1020.1 1020.1 1.2
28/06:30pm 12.2 9.7 10.9 92 0.7 SSW 15 17 8 9 1019.8 1019.8 1.2
28/06:00pm 12.8 7.6 11.7 93 0.6 SW 30 35 16 19 1019.3 1019.3 1.2
28/05:37pm 13.5 10.5 12.1 91 0.8 WSW 19 35 10 19 1019.5 1019.5 0.8
28/05:30pm 13.5 12.1 12.2 92 0.7 WSW 11 13 6 7 1019.3 1019.3 0.8
28/05:00pm 13.6 11.4 12.0 90 0.9 WSW 15 19 8 10 1019.0 1019.0 0.8
28/04:30pm 14.3 10.1 12.3 88 1.1 WSW 26 33 14 18 1018.8 1018.8 0.8
28/04:14pm 14.7 10.4 12.0 84 1.5 W 26 41 14 22 1018.5 1018.5 0.8
28/04:00pm 15.2 13.0 13.4 89 1.0 WNW 17 22 9 12 1018.4 1018.4 0.8
28/03:30pm 14.2 10.5 12.6 90 0.9 WNW 24 30 13 16 1018.2 1018.2 0.8
28/03:11pm 14.3 9.2 11.8 85 1.3 WNW 30 56 16 30 1018.3 1018.3 0.6
28/03:00pm 16.0 11.9 12.6 80 1.9 NW 26 37 14 20 1018.2 1018.2 0.0
28/02:30pm 16.6 11.1 12.4 76 2.3 NW 33 43 18 23 1017.8 1017.8 0.0
28/02:00pm 16.9 11.1 12.6 76 2.4 NW 35 43 19 23 1017.7 1017.7 0.0
28/01:30pm 16.6 10.8 12.8 78 2.1 NW 35 44 19 24 1017.8 1017.8 0.0
28/01:00pm 16.3 10.5 12.8 80 1.9 WNW 35 43 19 23 1018.1 1018.1 0.0
28/12:30pm 16.8 11.4 12.9 78 2.2 WNW 33 39 18 21 1018.2 1018.2 0.0
28/12:00pm 16.6 11.4 12.9 79 2.1 WNW 32 39 17 21 1018.6 1018.6 0.0
28/11:30am 16.6 10.9 12.9 79 2.1 WNW 35 43 19 23 1018.9 1018.9 0.0
28/11:00am 16.4 11.4 13.3 82 1.7 NW 32 39 17 21 1019.4 1019.4 0.0
28/10:30am 15.5 10.8 13.2 86 1.3 NW 30 37 16 20 1019.3 1019.3 0.0
28/10:00am 15.6 10.7 13.6 88 1.1 NW 32 41 17 22 1019.4 1019.4 0.0
28/09:30am 15.2 10.6 13.6 90 0.9 NW 30 37 16 20 1019.0 1019.0 0.0
28/09:00am 14.8 11.1 13.8 94 0.6 NNW 26 33 14 18 1018.7 1018.7 0.0
28/08:30am 14.4 10.9 13.4 94 0.6 NNW 24 30 13 16 1018.6 1018.6 0.0
28/08:00am 13.9 10.7 13.1 95 0.4 NW 22 28 12 15 1018.4 1018.4 0.0
28/07:30am 13.1 10.2 12.3 95 0.4 NW 19 24 10 13 1018.2 1018.2 0.0
28/07:00am 13.3 10.3 12.5 95 0.4 NW 20 24 11 13 1018.3 1018.3 0.0
28/06:30am 13.2 10.2 12.6 96 0.3 NW 20 24 11 13 1018.2 1018.2 0.0
28/06:00am 12.9 10.8 12.3 96 0.3 NNW 15 19 8 10 1017.8 1017.8 0.0
28/05:30am 13.0 10.1 12.2 95 0.4 NNW 19 20 10 11 1017.5 1017.5 0.0
28/05:00am 13.6 10.7 13.0 96 0.3 NW 20 24 11 13 1017.5 1017.5 0.0
28/04:30am 11.8 9.6 10.9 94 0.5 N 13 15 7 8 1017.6 1017.6 0.0
28/04:00am 11.8 9.6 10.9 94 0.5 N 13 15 7 8 1017.5 1017.5 0.0
28/03:30am 11.8 9.2 10.7 93 0.6 N 15 17 8 9 1017.6 1017.6 0.0
28/03:00am 11.2 8.3 9.8 91 0.7 N 15 17 8 9 1017.9 1017.9 0.0
28/02:30am 10.9 7.9 9.2 89 0.8 N 15 17 8 9 1017.6 1017.6 0.0
28/02:00am 11.1 8.0 8.8 86 1.1 N 15 17 8 9 1017.7 1017.7 0.0
28/01:30am 11.4 8.4 9.1 86 1.1 N 15 17 8 9 1017.9 1017.9 0.0
28/01:00am 11.7 8.3 9.1 84 1.3 N 17 20 9 11 1018.2 1018.2 0.0
28/12:30am 11.7 7.8 8.7 82 1.5 N 19 20 10 11 1017.8 1017.8 0.0
28/12:00am 11.9 8.1 8.9 82 1.5 N 19 20 10 11 1017.9 1017.9 0.0
 
Date/Time
CST
Temp
°C
App
Temp
°C
Dew
Point
Rel
Hum
%
Delta-T
°C
Wind Press
QNH
hPa
Press
MSL
hPa
Rain
since 9 am
mm
Dir
 
Spd
km/h
Gust
km/h
Spd
kts
Gust
kts
27/11:30pm 11.9 8.5 9.1 83 1.4 NNE 17 20 9 11 1017.9 1017.9 0.0
27/11:00pm 11.5 8.1 9.2 86 1.2 NNE 17 17 9 9 1018.3 1018.3 0.0
27/10:30pm 11.5 8.5 9.2 86 1.1 NNE 15 17 8 9 1018.5 1018.5 0.0
27/10:00pm 11.8 9.2 9.4 85 1.2 N 13 15 7 8 1018.6 1018.6 0.0
27/09:30pm 12.5 9.3 10.0 85 1.3 NNE 17 19 9 10 1018.6 1018.6 0.0
27/09:00pm 12.7 9.7 10.6 87 1.1 NNE 17 20 9 11 1018.7 1018.7 0.0
27/08:30pm 12.5 10.3 10.7 89 0.9 NNE 13 15 7 8 1018.8 1018.8 0.0
27/08:00pm 12.9 10.4 11.0 88 1.0 NNE 15 15 8 8 1018.7 1018.7 0.0
27/07:30pm 13.1 11.1 11.5 90 0.8 N 13 15 7 8 1018.7 1018.7 0.0
27/07:00pm 13.1 10.7 11.5 90 0.8 N 15 15 8 8 1018.6 1018.6 0.0
27/06:30pm 13.2 10.9 11.6 90 0.8 NNE 15 15 8 8 1018.4 1018.4 0.0
27/06:00pm 13.2 11.6 11.4 89 1.0 N 11 13 6 7 1018.3 1018.3 0.0
27/05:30pm 14.0 12.4 11.7 86 1.2 N 11 11 6 6 1018.3 1018.3 0.0
27/05:00pm 15.5 14.2 12.4 82 1.7 N 11 15 6 8 1018.4 1018.4 0.0
27/04:30pm 16.2 14.1 12.4 78 2.1 NNW 15 17 8 9 1018.4 1018.4 0.0
27/04:00pm 16.6 14.6 12.8 78 2.1 NNW 15 20 8 11 1018.5 1018.5 0.0
27/03:30pm 16.1 13.7 12.8 81 1.8 NNW 17 22 9 12 1018.6 1018.6 0.0
27/03:00pm 17.4 14.5 12.9 75 2.5 NW 20 24 11 13 1018.7 1018.7 0.0
27/02:30pm 17.3 14.4 12.8 75 2.5 NNW 20 26 11 14 1018.7 1018.7 0.0
27/02:00pm 17.1 14.4 13.0 77 2.3 NNW 19 22 10 12 1018.6 1018.6 0.0
27/01:30pm 16.9 14.0 13.0 78 2.2 NW 20 28 11 15 1019.1 1019.1 0.0
27/01:00pm 16.5 12.8 12.7 78 2.1 NW 24 28 13 15 1019.5 1019.5 0.0
27/12:30pm 17.1 13.9 13.2 78 2.2 NNW 22 28 12 15 1019.8 1019.8 0.0
27/12:00pm 16.4 12.7 12.6 78 2.1 NNW 24 32 13 17 1020.0 1020.0 0.0
27/11:30am 16.8 13.7 13.5 81 1.9 NNW 22 28 12 15 1020.4 1020.4 0.0
27/11:00am 15.6 11.4 12.5 82 1.7 NW 26 33 14 18 1020.8 1020.8 0.0
27/10:30am 15.4 11.8 13.2 87 1.2 NW 24 30 13 16 1021.0 1021.0 0.0
27/10:00am 15.2 11.7 13.4 89 1.0 NW 24 30 13 16 1020.8 1020.8 0.0
27/09:30am 15.4 12.7 13.6 89 1.0 NNW 20 26 11 14 1020.7 1020.7 0.0
27/09:00am 13.9 12.4 13.1 95 0.4 NNW 13 17 7 9 1020.7 1020.7 0.0
27/08:30am 12.7 10.1 11.9 95 0.4 N 17 19 9 10 1020.6 1020.6 0.0
27/08:00am 11.7 9.2 11.1 96 0.3 N 15 19 8 10 1020.6 1020.6 0.0
27/07:30am 9.9 6.9 9.1 95 0.4 N 15 17 8 9 1020.4 1020.4 0.0
27/07:00am 10.5 6.7 9.7 95 0.4 N 20 24 11 13 1019.7 1019.7 0.0
27/06:30am 10.5 6.7 9.7 95 0.4 NNE 20 24 11 13 1019.6 1019.6 0.0
27/06:00am 10.6 7.0 9.8 95 0.4 N 19 20 10 11 1019.4 1019.4 0.0
27/05:30am 10.0 6.6 9.1 94 0.4 N 17 19 9 10 1019.6 1019.6 0.0
27/05:00am 10.2 6.5 9.3 94 0.4 NNE 19 20 10 11 1019.6 1019.6 0.0
27/04:30am 10.5 6.8 9.4 93 0.5 N 19 20 10 11 1019.6 1019.6 0.0
27/04:00am 10.1 6.7 9.0 93 0.5 NE 17 20 9 11 1019.6 1019.6 0.0
27/03:30am 10.1 6.3 8.9 92 0.6 N 19 20 10 11 1019.8 1019.8 0.0
27/03:00am 10.7 7.3 9.3 91 0.7 N 17 19 9 10 1019.8 1019.8 0.0
27/02:30am 10.7 7.3 9.1 90 0.8 N 17 20 9 11 1020.0 1020.0 0.0
27/02:00am 11.2 8.0 9.8 91 0.7 N 17 17 9 9 1020.1 1020.1 0.0
27/01:30am 11.6 8.4 9.9 89 0.9 N 17 19 9 10 1020.2 1020.2 0.0
27/01:00am 12.3 9.3 10.5 89 0.9 N 17 20 9 11 1020.3 1020.3 0.0
27/12:30am 11.9 8.3 10.0 88 1.0 N 19 20 10 11 1020.6 1020.6 0.0
27/12:00am 12.3 9.1 9.9 85 1.2 NNE 17 20 9 11 1020.6 1020.6 0.0
 
Date/Time
CST
Temp
°C
App
Temp
°C
Dew
Point
Rel
Hum
%
Delta-T
°C
Wind Press
QNH
hPa
Press
MSL
hPa
Rain
since 9 am
mm
Dir
 
Spd
km/h
Gust
km/h
Spd
kts
Gust
kts
26/11:30pm 12.9 9.8 10.3 84 1.3 NNE 17 19 9 10 1020.6 1020.6 0.0
26/11:00pm 12.9 10.0 11.0 88 1.0 NNE 17 17 9 9 1020.7 1020.7 0.0
26/10:30pm 12.8 9.9 11.0 89 0.9 NNE 17 20 9 11 1020.7 1020.7 0.0
26/10:00pm 13.8 11.9 11.8 88 1.1 NNE 13 19 7 10 1020.9 1020.9 0.0
26/09:30pm 14.2 11.4 11.5 84 1.4 N 17 20 9 11 1021.0 1021.0 0.0
26/09:00pm 15.1 12.1 11.9 81 1.7 NNW 19 24 10 13 1021.5 1021.5 0.0
26/08:30pm 14.7 12.2 12.2 85 1.4 NW 17 20 9 11 1021.7 1021.7 0.0
26/08:00pm 14.7 12.8 11.8 83 1.6 NNW 13 15 7 8 1021.5 1021.5 0.0
26/07:30pm 14.4 12.5 11.9 85 1.3 NW 13 17 7 9 1021.4 1021.4 0.0
26/07:00pm 13.5 10.7 9.9 79 1.9 N 15 17 8 9 1021.4 1021.4 0.0
26/06:30pm 14.1 11.8 10.3 78 2.0 N 13 15 7 8 1021.1 1021.1 0.0

Other Formats:

Comma delimited format used in spreadsheet applications
http://www.bom.gov.au/fwo/IDS60801/IDS60801.95659.axf

JavaScript Object Notation format (JSON) in row-major order
http://www.bom.gov.au/fwo/IDS60801/IDS60801.95659.json